AIC9862 VEAT-VIDP
Flight info
| Callsign | AIC9862 |
|---|---|
| Flight time | 2h 21m |
| Altitude | 38000 |
| Route | CML DCT KANDI G463 MONDA A201 LKN DCT JAL JAL6E |
| Aircraft | A20N/M-SDE2E3FGHIRWXY/LB1 |
Departure
| Time | 2026-05-04 12:55 |
|---|---|
| Airport | Agartala - Maharaja Bir Bikram Airport (VEAT) |
Arrival
| Time | 2026-05-04 15:16 |
|---|---|
| Airport | Indira Gandhi International Airport (VIDP) |
| Time | Latitude | Longitude | Altitude | Speed | Heading |
|---|---|---|---|---|---|
| 2026-05-04 12:34 | 23.88594 | 91.24344 | 57 ft | 0 kts | 93° |
| 2026-05-04 12:42 | 23.88595 | 91.24337 | 56 ft | 2 kts | 94° |
| 2026-05-04 12:42 | 23.88596 | 91.24319 | 59 ft | 2 kts | 96° |
| 2026-05-04 12:42 | 23.88599 | 91.24301 | 56 ft | 2 kts | 108° |
| 2026-05-04 12:42 | 23.88608 | 91.24288 | 57 ft | 2 kts | 183° |
| 2026-05-04 12:43 | 23.88614 | 91.24288 | 59 ft | 0 kts | 184° |
| 2026-05-04 12:47 | 23.88605 | 91.24287 | 55 ft | 3 kts | 184° |
| 2026-05-04 12:48 | 23.88574 | 91.24285 | 58 ft | 6 kts | 184° |
| 2026-05-04 12:48 | 23.88522 | 91.24280 | 60 ft | 9 kts | 184° |
| 2026-05-04 12:48 | 23.88486 | 91.24238 | 59 ft | 10 kts | 268° |
| 2026-05-04 12:48 | 23.88491 | 91.24170 | 59 ft | 0 kts | 275° |
| 2026-05-04 12:49 | 23.88492 | 91.24153 | 59 ft | 5 kts | 275° |
| 2026-05-04 12:49 | 23.88493 | 91.24147 | 60 ft | 6 kts | 275° |
| 2026-05-04 12:50 | 23.88496 | 91.24111 | 57 ft | 9 kts | 275° |
| 2026-05-04 12:50 | 23.88457 | 91.24064 | 55 ft | 10 kts | 187° |
| 2026-05-04 12:50 | 23.88383 | 91.24057 | 59 ft | 11 kts | 185° |
| 2026-05-04 12:50 | 23.88299 | 91.24049 | 60 ft | 13 kts | 185° |
| 2026-05-04 12:51 | 23.88204 | 91.24040 | 60 ft | 15 kts | 184° |
| 2026-05-04 12:51 | 23.88091 | 91.24034 | 61 ft | 17 kts | 184° |
| 2026-05-04 12:51 | 23.87969 | 91.24025 | 64 ft | 19 kts | 184° |
| 2026-05-04 12:51 | 23.87833 | 91.24015 | 62 ft | 20 kts | 184° |
| 2026-05-04 12:52 | 23.87710 | 91.24055 | 61 ft | 13 kts | 195° |
| 2026-05-04 12:52 | 23.87713 | 91.24004 | 64 ft | 8 kts | 341° |
| 2026-05-04 12:52 | 23.87762 | 91.24008 | 64 ft | 0 kts | 5° |
| 2026-05-04 12:53 | 23.87764 | 91.24008 | 58 ft | 1 kts | 5° |
| 2026-05-04 12:54 | 23.87848 | 91.24015 | 61 ft | 38 kts | 3° |
| 2026-05-04 12:54 | 23.88362 | 91.24056 | 63 ft | 109 kts | 4° |
| 2026-05-04 12:54 | 23.89313 | 91.24133 | 84 ft | 160 kts | 4° |
| 2026-05-04 12:54 | 23.90472 | 91.24233 | 521 ft | 172 kts | 5° |
| 2026-05-04 12:55 | 23.91707 | 91.24344 | 1069 ft | 182 kts | 6° |
| 2026-05-04 12:55 | 23.92987 | 91.24459 | 1664 ft | 191 kts | 4° |
| 2026-05-04 12:55 | 23.94355 | 91.24374 | 2168 ft | 204 kts | 343° |
| 2026-05-04 12:55 | 23.95525 | 91.23446 | 2647 ft | 220 kts | 302° |
| 2026-05-04 12:56 | 23.95923 | 91.21842 | 3173 ft | 231 kts | 261° |
| 2026-05-04 12:56 | 23.95243 | 91.20252 | 3888 ft | 237 kts | 223° |
| 2026-05-04 12:56 | 23.93761 | 91.19466 | 4704 ft | 244 kts | 187° |
| 2026-05-04 12:56 | 23.92057 | 91.19735 | 5529 ft | 253 kts | 166° |
| 2026-05-04 12:57 | 23.90378 | 91.20357 | 6299 ft | 260 kts | 165° |
| 2026-05-04 12:57 | 23.88600 | 91.20827 | 7057 ft | 265 kts | 173° |
| 2026-05-04 12:57 | 23.86775 | 91.21040 | 7837 ft | 268 kts | 180° |
| 2026-05-04 12:57 | 23.84906 | 91.20993 | 8648 ft | 269 kts | 188° |
| 2026-05-04 12:58 | 23.83044 | 91.20679 | 9486 ft | 270 kts | 196° |
| 2026-05-04 12:58 | 23.81255 | 91.20116 | 10265 ft | 269 kts | 202° |
| 2026-05-04 12:58 | 23.79389 | 91.19581 | 10751 ft | 288 kts | 191° |
| 2026-05-04 12:58 | 23.77322 | 91.19394 | 11017 ft | 313 kts | 184° |
| 2026-05-04 12:59 | 23.75076 | 91.19373 | 11241 ft | 336 kts | 182° |
| 2026-05-04 12:59 | 23.72660 | 91.19391 | 11581 ft | 353 kts | 181° |
| 2026-05-04 12:59 | 23.70168 | 91.19399 | 12302 ft | 356 kts | 182° |
| 2026-05-04 12:59 | 23.67696 | 91.19389 | 13061 ft | 359 kts | 182° |
| 2026-05-04 13:00 | 23.65209 | 91.19363 | 13788 ft | 362 kts | 183° |
| 2026-05-04 13:00 | 23.62694 | 91.19329 | 14434 ft | 365 kts | 183° |
| 2026-05-04 13:00 | 23.60122 | 91.19289 | 15083 ft | 368 kts | 183° |
| 2026-05-04 13:00 | 23.57576 | 91.19250 | 15728 ft | 371 kts | 183° |
| 2026-05-04 13:01 | 23.54962 | 91.19208 | 16346 ft | 374 kts | 184° |
| 2026-05-04 13:01 | 23.52382 | 91.19092 | 16944 ft | 375 kts | 191° |
| 2026-05-04 13:01 | 23.49882 | 91.18298 | 17540 ft | 372 kts | 208° |
| 2026-05-04 13:01 | 23.47732 | 91.16761 | 18129 ft | 371 kts | 224° |
| 2026-05-04 13:02 | 23.46075 | 91.14596 | 18630 ft | 371 kts | 240° |
| 2026-05-04 13:02 | 23.45333 | 91.12919 | 18965 ft | 371 kts | 251° |
| 2026-05-04 13:02 | 23.44794 | 91.09221 | 19611 ft | 375 kts | 272° |
| 2026-05-04 13:02 | 23.44998 | 91.07363 | 19927 ft | 378 kts | 278° |
| 2026-05-04 13:03 | 23.45420 | 91.04516 | 20420 ft | 381 kts | 278° |
| 2026-05-04 13:03 | 23.45846 | 91.01638 | 20912 ft | 384 kts | 278° |
| 2026-05-04 13:03 | 23.46405 | 90.97816 | 21539 ft | 388 kts | 278° |
| 2026-05-04 13:03 | 23.46686 | 90.95875 | 21862 ft | 390 kts | 278° |
| 2026-05-04 13:04 | 23.47110 | 90.92932 | 22332 ft | 393 kts | 277° |
| 2026-05-04 13:04 | 23.47532 | 90.89999 | 22796 ft | 396 kts | 277° |
| 2026-05-04 13:04 | 23.47961 | 90.87005 | 23243 ft | 399 kts | 277° |
| 2026-05-04 13:04 | 23.48386 | 90.84033 | 23646 ft | 401 kts | 277° |
| 2026-05-04 13:05 | 23.48818 | 90.81010 | 24060 ft | 403 kts | 277° |
| 2026-05-04 13:05 | 23.49249 | 90.77996 | 24457 ft | 405 kts | 277° |
| 2026-05-04 13:05 | 23.49689 | 90.74947 | 24862 ft | 406 kts | 279° |
| 2026-05-04 13:05 | 23.50487 | 90.72011 | 25246 ft | 411 kts | 291° |
| 2026-05-04 13:06 | 23.51915 | 90.69273 | 25588 ft | 418 kts | 304° |
| 2026-05-04 13:06 | 23.53895 | 90.66951 | 25930 ft | 425 kts | 316° |
| 2026-05-04 13:06 | 23.56199 | 90.64889 | 26278 ft | 428 kts | 317° |
| 2026-05-04 13:06 | 23.58494 | 90.62842 | 26621 ft | 430 kts | 317° |
| 2026-05-04 13:07 | 23.60792 | 90.60786 | 26956 ft | 432 kts | 317° |
| 2026-05-04 13:07 | 23.63129 | 90.58690 | 27289 ft | 434 kts | 317° |
| 2026-05-04 13:07 | 23.65474 | 90.56582 | 27614 ft | 436 kts | 317° |
| 2026-05-04 13:07 | 23.67807 | 90.54483 | 27926 ft | 438 kts | 317° |
| 2026-05-04 13:08 | 23.70167 | 90.52359 | 28242 ft | 440 kts | 317° |
| 2026-05-04 13:08 | 23.72518 | 90.50242 | 28547 ft | 442 kts | 317° |
| 2026-05-04 13:08 | 23.74911 | 90.48086 | 28863 ft | 444 kts | 316° |
| 2026-05-04 13:08 | 23.77279 | 90.45954 | 29222 ft | 444 kts | 316° |
| 2026-05-04 13:09 | 23.79610 | 90.43765 | 29505 ft | 443 kts | 311° |
| 2026-05-04 13:09 | 23.81644 | 90.41211 | 29777 ft | 440 kts | 302° |
| 2026-05-04 13:09 | 23.83245 | 90.38378 | 30036 ft | 437 kts | 293° |
| 2026-05-04 13:09 | 23.84399 | 90.35367 | 30337 ft | 433 kts | 286° |
| 2026-05-04 13:10 | 23.85410 | 90.32265 | 30616 ft | 434 kts | 286° |
| 2026-05-04 13:10 | 23.86438 | 90.29148 | 30886 ft | 436 kts | 286° |
| 2026-05-04 13:10 | 23.87469 | 90.26028 | 31218 ft | 435 kts | 286° |
| 2026-05-04 13:10 | 23.88491 | 90.22934 | 31597 ft | 433 kts | 286° |
| 2026-05-04 13:11 | 23.89511 | 90.19838 | 31981 ft | 431 kts | 286° |
| 2026-05-04 13:11 | 23.90512 | 90.16793 | 32338 ft | 429 kts | 286° |
| 2026-05-04 13:11 | 23.91520 | 90.13726 | 32680 ft | 428 kts | 286° |
| 2026-05-04 13:11 | 23.92520 | 90.10676 | 33033 ft | 426 kts | 286° |
| 2026-05-04 13:12 | 23.93518 | 90.07631 | 33374 ft | 424 kts | 286° |
| 2026-05-04 13:12 | 23.94509 | 90.04604 | 33709 ft | 422 kts | 286° |
| 2026-05-04 13:12 | 23.95498 | 90.01579 | 33998 ft | 421 kts | 286° |
| 2026-05-04 13:12 | 23.96486 | 89.98557 | 34213 ft | 421 kts | 286° |
| 2026-05-04 13:13 | 23.97511 | 89.95555 | 34401 ft | 422 kts | 288° |
| 2026-05-04 13:13 | 23.98607 | 89.92568 | 34599 ft | 423 kts | 288° |
| 2026-05-04 13:13 | 23.99715 | 89.89593 | 34806 ft | 422 kts | 288° |
| 2026-05-04 13:13 | 24.00815 | 89.86623 | 35008 ft | 422 kts | 288° |
| 2026-05-04 13:14 | 24.01895 | 89.83684 | 35200 ft | 422 kts | 288° |
| 2026-05-04 13:14 | 24.02986 | 89.80697 | 35404 ft | 422 kts | 288° |
| 2026-05-04 13:14 | 24.04071 | 89.77714 | 35607 ft | 422 kts | 288° |
| 2026-05-04 13:14 | 24.05155 | 89.74728 | 35802 ft | 421 kts | 288° |
| 2026-05-04 13:15 | 24.06236 | 89.71746 | 35997 ft | 421 kts | 288° |
| 2026-05-04 13:15 | 24.07315 | 89.68769 | 36232 ft | 420 kts | 288° |
| 2026-05-04 13:15 | 24.08393 | 89.65796 | 36515 ft | 418 kts | 288° |
| 2026-05-04 13:15 | 24.09465 | 89.62834 | 36709 ft | 418 kts | 288° |
| 2026-05-04 13:16 | 24.10521 | 89.59915 | 36898 ft | 418 kts | 288° |
| 2026-05-04 13:16 | 24.11592 | 89.56952 | 37085 ft | 418 kts | 288° |
| 2026-05-04 13:16 | 24.12651 | 89.53988 | 37270 ft | 418 kts | 288° |
| 2026-05-04 13:16 | 24.13665 | 89.51029 | 37449 ft | 417 kts | 287° |
| 2026-05-04 13:17 | 24.14672 | 89.48047 | 37634 ft | 417 kts | 287° |
| 2026-05-04 13:17 | 24.15680 | 89.45066 | 37798 ft | 417 kts | 287° |
| 2026-05-04 13:17 | 24.16686 | 89.42097 | 37836 ft | 417 kts | 287° |
| 2026-05-04 13:18 | 24.18694 | 89.36199 | 37838 ft | 416 kts | 288° |
| 2026-05-04 13:18 | 24.20704 | 89.30295 | 37837 ft | 416 kts | 288° |
| 2026-05-04 13:19 | 24.22727 | 89.24344 | 37835 ft | 416 kts | 287° |
| 2026-05-04 13:19 | 24.24747 | 89.18393 | 37837 ft | 418 kts | 287° |
| 2026-05-04 13:20 | 24.26780 | 89.12396 | 37836 ft | 419 kts | 287° |
| 2026-05-04 13:20 | 24.28787 | 89.06466 | 37829 ft | 417 kts | 287° |
| 2026-05-04 13:21 | 24.30804 | 89.00500 | 37832 ft | 417 kts | 287° |
| 2026-05-04 13:21 | 24.32817 | 88.94534 | 37831 ft | 417 kts | 287° |
| 2026-05-04 13:22 | 24.34828 | 88.88565 | 37828 ft | 417 kts | 287° |
| 2026-05-04 13:22 | 24.36837 | 88.82595 | 37831 ft | 417 kts | 287° |
| 2026-05-04 13:23 | 24.38839 | 88.76637 | 37833 ft | 417 kts | 287° |
| 2026-05-04 13:23 | 24.40833 | 88.70693 | 37835 ft | 417 kts | 287° |
| 2026-05-04 13:24 | 24.42834 | 88.64717 | 37831 ft | 417 kts | 287° |
| 2026-05-04 13:24 | 24.45031 | 88.58824 | 37825 ft | 419 kts | 291° |
| 2026-05-04 13:25 | 24.48707 | 88.50120 | 37824 ft | 418 kts | 291° |
| 2026-05-04 13:25 | 24.51128 | 88.44358 | 37822 ft | 418 kts | 291° |
| 2026-05-04 13:26 | 24.53564 | 88.38553 | 37818 ft | 418 kts | 291° |
| 2026-05-04 13:26 | 24.55993 | 88.32757 | 37816 ft | 418 kts | 291° |
| 2026-05-04 13:27 | 24.58421 | 88.26956 | 37810 ft | 418 kts | 291° |
| 2026-05-04 13:27 | 24.60847 | 88.21155 | 37812 ft | 418 kts | 291° |
| 2026-05-04 13:28 | 24.63271 | 88.15349 | 37811 ft | 418 kts | 291° |
| 2026-05-04 13:28 | 24.65694 | 88.09539 | 37807 ft | 418 kts | 291° |
| 2026-05-04 13:29 | 24.68114 | 88.03728 | 37806 ft | 418 kts | 290° |
| 2026-05-04 13:29 | 24.70510 | 87.97936 | 37822 ft | 418 kts | 290° |
| 2026-05-04 13:30 | 24.72871 | 87.92183 | 37826 ft | 418 kts | 290° |
| 2026-05-04 13:30 | 24.75263 | 87.86353 | 37827 ft | 418 kts | 290° |
| 2026-05-04 13:31 | 24.77659 | 87.80508 | 37824 ft | 418 kts | 290° |
| 2026-05-04 13:31 | 24.80083 | 87.74725 | 37822 ft | 418 kts | 291° |
| 2026-05-04 13:32 | 24.82565 | 87.68939 | 37823 ft | 418 kts | 291° |
| 2026-05-04 13:32 | 24.84998 | 87.63233 | 37816 ft | 417 kts | 291° |
| 2026-05-04 13:33 | 24.87441 | 87.57483 | 37821 ft | 417 kts | 291° |
| 2026-05-04 13:33 | 24.89895 | 87.51693 | 37820 ft | 417 kts | 291° |
| 2026-05-04 13:34 | 24.92341 | 87.45914 | 37822 ft | 416 kts | 290° |
| 2026-05-04 13:34 | 24.94787 | 87.40128 | 37820 ft | 416 kts | 291° |
| 2026-05-04 13:35 | 24.98460 | 87.31426 | 37813 ft | 417 kts | 291° |
| 2026-05-04 13:36 | 25.00893 | 87.25656 | 37828 ft | 417 kts | 290° |
| 2026-05-04 13:36 | 25.03340 | 87.19843 | 37835 ft | 418 kts | 290° |
| 2026-05-04 13:37 | 25.05788 | 87.14017 | 37839 ft | 418 kts | 290° |
| 2026-05-04 13:37 | 25.08217 | 87.08232 | 37840 ft | 418 kts | 290° |
| 2026-05-04 13:38 | 25.10659 | 87.02406 | 37844 ft | 418 kts | 290° |
| 2026-05-04 13:38 | 25.13098 | 86.96581 | 37842 ft | 418 kts | 290° |
| 2026-05-04 13:39 | 25.15534 | 86.90753 | 37851 ft | 418 kts | 290° |
| 2026-05-04 13:39 | 25.16751 | 86.87839 | 39278 ft | 417 kts | 291° |
| 2026-05-04 13:39 | 25.17926 | 86.85002 | 37552 ft | 417 kts | 290° |
| 2026-05-04 13:39 | 25.19126 | 86.82153 | 37815 ft | 400 kts | 290° |
| 2026-05-04 13:40 | 25.20297 | 86.79350 | 37815 ft | 404 kts | 289° |
| 2026-05-04 13:40 | 25.22660 | 86.73660 | 37811 ft | 412 kts | 289° |
| 2026-05-04 13:41 | 25.25062 | 86.67878 | 37816 ft | 414 kts | 289° |
| 2026-05-04 13:41 | 25.27461 | 86.62109 | 37808 ft | 413 kts | 289° |
| 2026-05-04 13:42 | 25.31040 | 86.53478 | 37808 ft | 413 kts | 289° |
| 2026-05-04 13:42 | 25.33428 | 86.47702 | 37797 ft | 413 kts | 288° |
| 2026-05-04 13:43 | 25.35333 | 86.41763 | 37802 ft | 408 kts | 281° |
| 2026-05-04 13:43 | 25.36527 | 86.35657 | 37802 ft | 406 kts | 277° |
| 2026-05-04 13:44 | 25.37650 | 86.29541 | 37794 ft | 406 kts | 278° |
| 2026-05-04 13:44 | 25.38764 | 86.23463 | 37793 ft | 406 kts | 277° |
| 2026-05-04 13:45 | 25.39880 | 86.17337 | 37798 ft | 406 kts | 277° |
| 2026-05-04 13:45 | 25.40992 | 86.11212 | 37792 ft | 406 kts | 277° |
| 2026-05-04 13:46 | 25.42099 | 86.05089 | 37793 ft | 406 kts | 277° |
| 2026-05-04 13:46 | 25.43203 | 85.98971 | 37793 ft | 406 kts | 277° |
| 2026-05-04 13:47 | 25.44308 | 85.92836 | 37791 ft | 405 kts | 277° |
| 2026-05-04 13:47 | 25.45402 | 85.86745 | 37778 ft | 405 kts | 277° |
| 2026-05-04 13:48 | 25.46497 | 85.80635 | 37781 ft | 405 kts | 277° |
| 2026-05-04 13:48 | 25.47589 | 85.74522 | 37781 ft | 404 kts | 277° |
| 2026-05-04 13:49 | 25.48678 | 85.68417 | 37770 ft | 404 kts | 277° |
| 2026-05-04 13:49 | 25.49764 | 85.62306 | 37772 ft | 404 kts | 277° |
| 2026-05-04 13:50 | 25.50841 | 85.56237 | 37762 ft | 404 kts | 277° |
| 2026-05-04 13:50 | 25.51921 | 85.50134 | 37758 ft | 404 kts | 277° |
| 2026-05-04 13:51 | 25.52999 | 85.44024 | 37757 ft | 404 kts | 277° |
| 2026-05-04 13:51 | 25.54073 | 85.37925 | 37761 ft | 403 kts | 277° |
| 2026-05-04 13:52 | 25.55679 | 85.28774 | 37770 ft | 403 kts | 277° |
| 2026-05-04 13:53 | 25.56566 | 85.23700 | 37791 ft | 403 kts | 277° |
| 2026-05-04 13:53 | 25.57633 | 85.17589 | 37772 ft | 404 kts | 277° |
| 2026-05-04 13:54 | 25.59353 | 85.08424 | 37774 ft | 407 kts | 282° |
| 2026-05-04 13:55 | 25.61976 | 84.99476 | 37775 ft | 414 kts | 283° |
| 2026-05-04 13:55 | 25.64658 | 84.90338 | 37767 ft | 414 kts | 283° |
| 2026-05-04 13:56 | 25.66431 | 84.84291 | 37764 ft | 414 kts | 283° |
| 2026-05-04 13:57 | 25.69097 | 84.75172 | 37773 ft | 414 kts | 283° |
| 2026-05-04 13:58 | 25.72646 | 84.63005 | 37767 ft | 414 kts | 282° |
| 2026-05-04 13:58 | 25.75298 | 84.53882 | 37771 ft | 414 kts | 282° |
| 2026-05-04 13:59 | 25.77058 | 84.47816 | 37779 ft | 415 kts | 282° |
| 2026-05-04 14:00 | 25.79704 | 84.38672 | 37789 ft | 415 kts | 282° |
| 2026-05-04 14:00 | 25.82350 | 84.29509 | 37796 ft | 415 kts | 282° |
| 2026-05-04 14:01 | 25.84098 | 84.23435 | 37822 ft | 416 kts | 282° |
| 2026-05-04 14:02 | 25.85999 | 84.16831 | 37804 ft | 414 kts | 282° |
| 2026-05-04 14:02 | 25.87735 | 84.10779 | 37798 ft | 414 kts | 282° |
| 2026-05-04 14:03 | 25.89478 | 84.04695 | 37806 ft | 414 kts | 282° |
| 2026-05-04 14:03 | 25.91221 | 83.98601 | 37808 ft | 414 kts | 282° |
| 2026-05-04 14:04 | 25.93836 | 83.89441 | 37799 ft | 413 kts | 282° |
| 2026-05-04 14:04 | 25.95563 | 83.83382 | 37791 ft | 410 kts | 282° |
| 2026-05-04 14:05 | 25.97170 | 83.77724 | 37797 ft | 412 kts | 282° |
| 2026-05-04 14:06 | 25.98890 | 83.71659 | 37773 ft | 411 kts | 282° |
| 2026-05-04 14:06 | 26.00609 | 83.65593 | 37794 ft | 411 kts | 282° |
| 2026-05-04 14:07 | 26.02329 | 83.59510 | 37785 ft | 411 kts | 282° |
| 2026-05-04 14:07 | 26.04041 | 83.53450 | 37782 ft | 411 kts | 282° |
| 2026-05-04 14:08 | 26.05756 | 83.47380 | 37772 ft | 411 kts | 282° |
| 2026-05-04 14:08 | 26.07461 | 83.41345 | 37755 ft | 411 kts | 282° |
| 2026-05-04 14:09 | 26.10026 | 83.32239 | 37760 ft | 411 kts | 282° |
| 2026-05-04 14:10 | 26.12588 | 83.23117 | 37759 ft | 412 kts | 282° |
| 2026-05-04 14:10 | 26.14296 | 83.17020 | 37760 ft | 412 kts | 282° |
| 2026-05-04 14:11 | 26.15995 | 83.10953 | 37753 ft | 409 kts | 281° |
| 2026-05-04 14:11 | 26.18519 | 83.01901 | 37757 ft | 410 kts | 281° |
| 2026-05-04 14:12 | 26.20205 | 82.95845 | 37752 ft | 409 kts | 281° |
| 2026-05-04 14:13 | 26.22735 | 82.86734 | 37758 ft | 410 kts | 281° |
| 2026-05-04 14:13 | 26.24415 | 82.80677 | 37748 ft | 408 kts | 281° |
| 2026-05-04 14:14 | 26.26086 | 82.74642 | 37743 ft | 407 kts | 281° |
| 2026-05-04 14:14 | 26.28569 | 82.65645 | 37735 ft | 406 kts | 281° |
| 2026-05-04 14:15 | 26.31877 | 82.53613 | 37755 ft | 410 kts | 281° |
| 2026-05-04 14:16 | 26.34372 | 82.44524 | 37754 ft | 408 kts | 280° |
| 2026-05-04 14:17 | 26.36862 | 82.35425 | 37756 ft | 407 kts | 280° |
| 2026-05-04 14:18 | 26.39320 | 82.26413 | 37757 ft | 407 kts | 280° |
| 2026-05-04 14:19 | 26.42604 | 82.14338 | 37757 ft | 406 kts | 280° |
| 2026-05-04 14:19 | 26.44241 | 82.08302 | 37757 ft | 406 kts | 280° |
| 2026-05-04 14:20 | 26.45876 | 82.02264 | 37756 ft | 406 kts | 280° |
| 2026-05-04 14:20 | 26.47506 | 81.96231 | 37760 ft | 406 kts | 280° |
| 2026-05-04 14:21 | 26.49939 | 81.87206 | 37761 ft | 406 kts | 280° |
| 2026-05-04 14:21 | 26.51564 | 81.81164 | 37761 ft | 406 kts | 280° |
| 2026-05-04 14:22 | 26.53185 | 81.75126 | 37761 ft | 406 kts | 280° |
| 2026-05-04 14:22 | 26.54797 | 81.69111 | 37760 ft | 406 kts | 280° |
| 2026-05-04 14:23 | 26.57222 | 81.60039 | 37772 ft | 406 kts | 280° |
| 2026-05-04 14:24 | 26.58833 | 81.54000 | 37772 ft | 405 kts | 280° |
| 2026-05-04 14:24 | 26.60431 | 81.47999 | 37770 ft | 405 kts | 280° |
| 2026-05-04 14:25 | 26.62032 | 81.41975 | 37781 ft | 405 kts | 280° |
| 2026-05-04 14:25 | 26.64420 | 81.32967 | 37772 ft | 404 kts | 280° |
| 2026-05-04 14:26 | 26.66015 | 81.26937 | 37777 ft | 403 kts | 280° |
| 2026-05-04 14:26 | 26.67601 | 81.20930 | 37777 ft | 403 kts | 280° |
| 2026-05-04 14:27 | 26.69172 | 81.14966 | 37763 ft | 402 kts | 280° |
| 2026-05-04 14:27 | 26.70751 | 81.08966 | 37761 ft | 401 kts | 280° |
| 2026-05-04 14:28 | 26.72323 | 81.02976 | 37770 ft | 401 kts | 280° |
| 2026-05-04 14:28 | 26.73893 | 80.96985 | 37765 ft | 401 kts | 280° |
| 2026-05-04 14:29 | 26.78864 | 80.85643 | 37773 ft | 419 kts | 298° |
| 2026-05-04 14:30 | 26.82646 | 80.80591 | 37775 ft | 423 kts | 302° |
| 2026-05-04 14:31 | 26.88393 | 80.73067 | 37771 ft | 424 kts | 301° |
| 2026-05-04 14:32 | 26.96050 | 80.63020 | 37778 ft | 425 kts | 301° |
| 2026-05-04 14:32 | 26.99889 | 80.57975 | 37780 ft | 425 kts | 301° |
| 2026-05-04 14:33 | 27.03705 | 80.52955 | 37791 ft | 425 kts | 301° |
| 2026-05-04 14:33 | 27.07543 | 80.47901 | 37786 ft | 425 kts | 301° |
| 2026-05-04 14:34 | 27.11382 | 80.42839 | 37785 ft | 425 kts | 301° |
| 2026-05-04 14:34 | 27.15218 | 80.37777 | 37813 ft | 426 kts | 301° |
| 2026-05-04 14:35 | 27.19035 | 80.32733 | 37786 ft | 426 kts | 301° |
| 2026-05-04 14:35 | 27.22871 | 80.27658 | 37785 ft | 427 kts | 301° |
| 2026-05-04 14:36 | 27.26718 | 80.22561 | 37793 ft | 427 kts | 301° |
| 2026-05-04 14:36 | 27.30555 | 80.17473 | 37790 ft | 426 kts | 301° |
| 2026-05-04 14:37 | 27.34404 | 80.12362 | 37796 ft | 427 kts | 301° |
| 2026-05-04 14:37 | 27.38241 | 80.07261 | 37800 ft | 427 kts | 301° |
| 2026-05-04 14:38 | 27.42074 | 80.02160 | 37832 ft | 427 kts | 301° |
| 2026-05-04 14:38 | 27.45897 | 79.97066 | 37796 ft | 428 kts | 301° |
| 2026-05-04 14:39 | 27.49748 | 79.91929 | 37811 ft | 428 kts | 301° |
| 2026-05-04 14:39 | 27.53591 | 79.86796 | 37807 ft | 429 kts | 301° |
| 2026-05-04 14:40 | 27.58706 | 79.79955 | 37807 ft | 429 kts | 301° |
| 2026-05-04 14:40 | 27.62553 | 79.74802 | 37807 ft | 429 kts | 301° |
| 2026-05-04 14:41 | 27.66404 | 79.69638 | 37809 ft | 429 kts | 301° |
| 2026-05-04 14:42 | 27.73354 | 79.58901 | 37809 ft | 423 kts | 295° |
| 2026-05-04 14:42 | 27.76615 | 79.53378 | 37810 ft | 423 kts | 295° |
| 2026-05-04 14:43 | 27.79877 | 79.47841 | 37810 ft | 423 kts | 295° |
| 2026-05-04 14:43 | 27.83129 | 79.42308 | 37826 ft | 423 kts | 295° |
| 2026-05-04 14:44 | 27.86368 | 79.36785 | 37814 ft | 424 kts | 295° |
| 2026-05-04 14:44 | 27.89633 | 79.31214 | 37820 ft | 424 kts | 295° |
| 2026-05-04 14:45 | 27.92885 | 79.25658 | 37819 ft | 424 kts | 295° |
| 2026-05-04 14:45 | 27.96137 | 79.20094 | 37822 ft | 424 kts | 295° |
| 2026-05-04 14:46 | 27.99366 | 79.14562 | 37822 ft | 423 kts | 295° |
| 2026-05-04 14:46 | 28.02615 | 79.08989 | 37823 ft | 423 kts | 295° |
| 2026-05-04 14:47 | 28.05856 | 79.03418 | 37823 ft | 423 kts | 295° |
| 2026-05-04 14:47 | 28.09096 | 78.97845 | 37821 ft | 423 kts | 295° |
| 2026-05-04 14:48 | 28.11948 | 78.92105 | 37819 ft | 415 kts | 288° |
| 2026-05-04 14:48 | 28.14480 | 78.86261 | 37821 ft | 415 kts | 289° |
| 2026-05-04 14:49 | 28.17041 | 78.80386 | 37817 ft | 415 kts | 289° |
| 2026-05-04 14:49 | 28.19591 | 78.74518 | 37767 ft | 415 kts | 289° |
| 2026-05-04 14:50 | 28.20867 | 78.71577 | 37393 ft | 416 kts | 289° |
| 2026-05-04 14:50 | 28.22149 | 78.68611 | 36602 ft | 420 kts | 289° |
| 2026-05-04 14:50 | 28.23445 | 78.65605 | 35654 ft | 427 kts | 290° |
| 2026-05-04 14:50 | 28.24756 | 78.62564 | 34770 ft | 431 kts | 290° |
| 2026-05-04 14:51 | 28.26062 | 78.59542 | 33969 ft | 432 kts | 291° |
| 2026-05-04 14:51 | 28.27389 | 78.56469 | 33075 ft | 433 kts | 291° |
| 2026-05-04 14:51 | 28.28713 | 78.53403 | 32135 ft | 434 kts | 291° |
| 2026-05-04 14:51 | 28.30041 | 78.50325 | 31360 ft | 432 kts | 291° |
| 2026-05-04 14:52 | 28.31359 | 78.47267 | 30566 ft | 432 kts | 292° |
| 2026-05-04 14:52 | 28.32670 | 78.44227 | 30084 ft | 424 kts | 292° |
| 2026-05-04 14:52 | 28.33959 | 78.41235 | 29432 ft | 419 kts | 292° |
| 2026-05-04 14:52 | 28.35226 | 78.38293 | 28941 ft | 411 kts | 292° |
| 2026-05-04 14:53 | 28.36472 | 78.35395 | 28412 ft | 404 kts | 292° |
| 2026-05-04 14:53 | 28.37691 | 78.32558 | 27892 ft | 397 kts | 292° |
| 2026-05-04 14:53 | 28.38894 | 78.29754 | 27376 ft | 391 kts | 292° |
| 2026-05-04 14:53 | 28.40061 | 78.27032 | 26872 ft | 385 kts | 292° |
| 2026-05-04 14:54 | 28.41222 | 78.24322 | 26377 ft | 379 kts | 292° |
| 2026-05-04 14:54 | 28.42370 | 78.21641 | 25870 ft | 374 kts | 292° |
| 2026-05-04 14:54 | 28.43501 | 78.18998 | 25402 ft | 369 kts | 292° |
| 2026-05-04 14:54 | 28.44621 | 78.16379 | 24876 ft | 367 kts | 292° |
| 2026-05-04 14:55 | 28.45709 | 78.13834 | 24555 ft | 358 kts | 292° |
| 2026-05-04 14:55 | 28.46779 | 78.11335 | 24437 ft | 344 kts | 292° |
| 2026-05-04 14:55 | 28.47803 | 78.08942 | 24331 ft | 330 kts | 292° |
| 2026-05-04 14:55 | 28.48787 | 78.06641 | 24235 ft | 317 kts | 292° |
| 2026-05-04 14:56 | 28.49726 | 78.04440 | 24089 ft | 304 kts | 292° |
| 2026-05-04 14:56 | 28.50634 | 78.02311 | 23815 ft | 294 kts | 292° |
| 2026-05-04 14:56 | 28.51522 | 78.00221 | 23589 ft | 293 kts | 292° |
| 2026-05-04 14:56 | 28.52400 | 77.98151 | 23361 ft | 293 kts | 292° |
| 2026-05-04 14:57 | 28.53279 | 77.96086 | 23101 ft | 293 kts | 292° |
| 2026-05-04 14:57 | 28.54194 | 77.93989 | 22827 ft | 291 kts | 293° |
| 2026-05-04 14:57 | 28.55085 | 77.91976 | 22565 ft | 287 kts | 293° |
| 2026-05-04 14:57 | 28.55982 | 77.89948 | 22304 ft | 287 kts | 293° |
| 2026-05-04 14:58 | 28.56881 | 77.87910 | 22058 ft | 288 kts | 293° |
| 2026-05-04 14:58 | 28.57780 | 77.85865 | 21733 ft | 288 kts | 293° |
| 2026-05-04 14:58 | 28.58673 | 77.83833 | 21396 ft | 285 kts | 293° |
| 2026-05-04 14:58 | 28.59551 | 77.81831 | 21061 ft | 281 kts | 293° |
| 2026-05-04 14:59 | 28.60419 | 77.79854 | 20740 ft | 277 kts | 293° |
| 2026-05-04 14:59 | 28.61274 | 77.77903 | 20417 ft | 273 kts | 293° |
| 2026-05-04 14:59 | 28.62937 | 77.74105 | 19780 ft | 267 kts | 293° |
| 2026-05-04 15:00 | 28.63758 | 77.72228 | 19481 ft | 263 kts | 293° |
| 2026-05-04 15:00 | 28.64540 | 77.70441 | 19182 ft | 260 kts | 293° |
| 2026-05-04 15:00 | 28.65394 | 77.68481 | 18958 ft | 282 kts | 294° |
| 2026-05-04 15:01 | 28.67186 | 77.64366 | 18592 ft | 288 kts | 294° |
| 2026-05-04 15:01 | 28.68076 | 77.62333 | 18426 ft | 286 kts | 294° |
| 2026-05-04 15:01 | 28.68967 | 77.60292 | 18061 ft | 290 kts | 294° |
| 2026-05-04 15:01 | 28.69872 | 77.58217 | 17620 ft | 291 kts | 295° |
| 2026-05-04 15:02 | 28.70772 | 77.56151 | 17221 ft | 290 kts | 295° |
| 2026-05-04 15:02 | 28.71663 | 77.54108 | 16838 ft | 287 kts | 295° |
| 2026-05-04 15:02 | 28.72549 | 77.52074 | 16434 ft | 286 kts | 295° |
| 2026-05-04 15:02 | 28.73429 | 77.50052 | 16067 ft | 283 kts | 295° |
| 2026-05-04 15:03 | 28.74302 | 77.48044 | 15679 ft | 282 kts | 295° |
| 2026-05-04 15:03 | 28.75170 | 77.46046 | 15323 ft | 280 kts | 295° |
| 2026-05-04 15:03 | 28.76025 | 77.44078 | 14940 ft | 279 kts | 295° |
| 2026-05-04 15:03 | 28.76871 | 77.42128 | 14597 ft | 277 kts | 295° |
| 2026-05-04 15:04 | 28.77721 | 77.40168 | 14239 ft | 275 kts | 295° |
| 2026-05-04 15:04 | 28.78568 | 77.38217 | 13882 ft | 274 kts | 295° |
| 2026-05-04 15:04 | 28.79405 | 77.36284 | 13544 ft | 271 kts | 295° |
| 2026-05-04 15:04 | 28.80235 | 77.34366 | 13201 ft | 268 kts | 295° |
| 2026-05-04 15:05 | 28.81050 | 77.32482 | 12980 ft | 261 kts | 295° |
| 2026-05-04 15:05 | 28.81853 | 77.30623 | 12897 ft | 265 kts | 294° |
| 2026-05-04 15:05 | 28.82417 | 77.28633 | 12814 ft | 264 kts | 280° |
| 2026-05-04 15:05 | 28.82544 | 77.26536 | 12552 ft | 266 kts | 271° |
| 2026-05-04 15:06 | 28.82557 | 77.24410 | 12171 ft | 268 kts | 271° |
| 2026-05-04 15:06 | 28.82575 | 77.22314 | 11813 ft | 267 kts | 271° |
| 2026-05-04 15:06 | 28.82599 | 77.20191 | 11423 ft | 267 kts | 271° |
| 2026-05-04 15:07 | 28.82648 | 77.15997 | 10763 ft | 262 kts | 271° |
| 2026-05-04 15:07 | 28.82672 | 77.13928 | 10434 ft | 261 kts | 271° |
| 2026-05-04 15:07 | 28.82696 | 77.11862 | 10108 ft | 259 kts | 271° |
| 2026-05-04 15:07 | 28.82719 | 77.09838 | 9992 ft | 253 kts | 271° |
| 2026-05-04 15:08 | 28.82534 | 77.07824 | 9880 ft | 262 kts | 252° |
| 2026-05-04 15:08 | 28.81611 | 77.06025 | 9775 ft | 266 kts | 231° |
| 2026-05-04 15:08 | 28.80369 | 77.04453 | 9438 ft | 267 kts | 230° |
| 2026-05-04 15:08 | 28.79161 | 77.02930 | 9038 ft | 269 kts | 230° |
| 2026-05-04 15:09 | 28.77907 | 77.01348 | 8644 ft | 269 kts | 230° |
| 2026-05-04 15:09 | 28.76664 | 76.99775 | 8352 ft | 264 kts | 230° |
| 2026-05-04 15:09 | 28.75439 | 76.98211 | 7839 ft | 265 kts | 230° |
| 2026-05-04 15:10 | 28.72994 | 76.95088 | 6764 ft | 264 kts | 229° |
| 2026-05-04 15:10 | 28.71764 | 76.93518 | 6232 ft | 265 kts | 228° |
| 2026-05-04 15:10 | 28.69320 | 76.90403 | 5145 ft | 266 kts | 225° |
| 2026-05-04 15:11 | 28.67846 | 76.89130 | 4603 ft | 261 kts | 201° |
| 2026-05-04 15:11 | 28.66143 | 76.88576 | 4089 ft | 256 kts | 188° |
| 2026-05-04 15:11 | 28.64393 | 76.88186 | 3561 ft | 256 kts | 188° |
| 2026-05-04 15:11 | 28.62658 | 76.87791 | 3184 ft | 252 kts | 189° |
| 2026-05-04 15:12 | 28.60959 | 76.87398 | 2896 ft | 243 kts | 187° |
| 2026-05-04 15:12 | 28.59283 | 76.87464 | 2823 ft | 242 kts | 158° |
| 2026-05-04 15:12 | 28.57912 | 76.88457 | 2711 ft | 233 kts | 128° |
| 2026-05-04 15:12 | 28.57311 | 76.90076 | 2616 ft | 224 kts | 94° |
| 2026-05-04 15:13 | 28.57324 | 76.91873 | 2592 ft | 226 kts | 88° |
| 2026-05-04 15:13 | 28.57369 | 76.93689 | 2592 ft | 232 kts | 90° |
| 2026-05-04 15:13 | 28.57356 | 76.95513 | 2593 ft | 235 kts | 92° |
| 2026-05-04 15:13 | 28.57314 | 76.97313 | 2584 ft | 227 kts | 91° |
| 2026-05-04 15:14 | 28.57275 | 76.99052 | 2400 ft | 216 kts | 92° |
| 2026-05-04 15:14 | 28.57237 | 77.00739 | 2127 ft | 211 kts | 92° |
| 2026-05-04 15:14 | 28.57200 | 77.02387 | 1851 ft | 209 kts | 91° |
| 2026-05-04 15:14 | 28.57161 | 77.03986 | 1599 ft | 208 kts | 90° |
| 2026-05-04 15:15 | 28.57130 | 77.05621 | 1309 ft | 206 kts | 91° |
| 2026-05-04 15:15 | 28.57090 | 77.07175 | 1050 ft | 194 kts | 94° |
| 2026-05-04 15:15 | 28.57070 | 77.08657 | 807 ft | 179 kts | 92° |
| 2026-05-04 15:16 | 28.57009 | 77.10832 | 748 ft | 83 kts | 91° |
| 2026-05-04 15:16 | 28.56999 | 77.11259 | 747 ft | 27 kts | 91° |
| 2026-05-04 15:16 | 28.56991 | 77.11580 | 750 ft | 0 kts | 96° |
| 2026-05-04 15:17 | 28.56990 | 77.11590 | 750 ft | 3 kts | 102° |
| 2026-05-04 15:17 | 28.56938 | 77.11626 | 751 ft | 7 kts | 171° |
| 2026-05-04 15:17 | 28.56882 | 77.11637 | 748 ft | 10 kts | 171° |
| 2026-05-04 15:18 | 28.56850 | 77.11646 | 749 ft | 1 kts | 150° |
| 2026-05-04 15:18 | 28.56848 | 77.11647 | 749 ft | 0 kts | 148° |
| 2026-05-04 15:19 | 28.56840 | 77.11648 | 747 ft | 1 kts | 180° |
| 2026-05-04 15:19 | 28.56832 | 77.11641 | 748 ft | 0 kts | 239° |
| 2026-05-04 15:19 | 28.56836 | 77.11621 | 748 ft | 3 kts | 286° |
| 2026-05-04 15:20 | 28.56842 | 77.11584 | 747 ft | 6 kts | 277° |
| 2026-05-04 15:20 | 28.56844 | 77.11519 | 750 ft | 10 kts | 271° |
| 2026-05-04 15:20 | 28.56845 | 77.11424 | 749 ft | 14 kts | 271° |
| 2026-05-04 15:20 | 28.56847 | 77.11305 | 748 ft | 17 kts | 271° |
| 2026-05-04 15:21 | 28.56849 | 77.11198 | 748 ft | 0 kts | 271° |
| 2026-05-04 15:22 | 28.56849 | 77.11197 | 748 ft | 1 kts | 271° |
| 2026-05-04 15:22 | 28.56850 | 77.11177 | 748 ft | 4 kts | 273° |
| 2026-05-04 15:22 | 28.56853 | 77.11082 | 750 ft | 10 kts | 271° |
| 2026-05-04 15:23 | 28.56777 | 77.11053 | 748 ft | 11 kts | 193° |
| 2026-05-04 15:23 | 28.56692 | 77.11027 | 748 ft | 14 kts | 193° |
| 2026-05-04 15:23 | 28.56622 | 77.11019 | 749 ft | 16 kts | 189° |
| 2026-05-04 15:23 | 28.56467 | 77.10966 | 749 ft | 20 kts | 195° |
| 2026-05-04 15:24 | 28.56287 | 77.11093 | 749 ft | 20 kts | 104° |
| 2026-05-04 15:24 | 28.56219 | 77.11415 | 747 ft | 22 kts | 104° |
| 2026-05-04 15:25 | 28.56177 | 77.11510 | 750 ft | 20 kts | 136° |
| 2026-05-04 15:25 | 28.56149 | 77.11534 | 747 ft | 0 kts | 143° |
| 2026-05-04 15:25 | 28.56138 | 77.11543 | 749 ft | 4 kts | 143° |
| 2026-05-04 15:26 | 28.56095 | 77.11538 | 747 ft | 5 kts | 245° |
| 2026-05-04 15:26 | 28.56106 | 77.11512 | 747 ft | 3 kts | 341° |
| 2026-05-04 15:26 | 28.56189 | 77.11484 | 748 ft | 9 kts | 322° |
| 2026-05-04 15:27 | 28.56209 | 77.11418 | 749 ft | 11 kts | 287° |
| 2026-05-04 15:27 | 28.56312 | 77.11271 | 747 ft | 15 kts | 10° |
| 2026-05-04 15:28 | 28.56453 | 77.11233 | 746 ft | 10 kts | 341° |
| 2026-05-04 15:28 | 28.56510 | 77.11174 | 748 ft | 13 kts | 306° |
| 2026-05-04 15:28 | 28.56623 | 77.11014 | 746 ft | 17 kts | 10° |
| 2026-05-04 15:29 | 28.56744 | 77.11043 | 749 ft | 19 kts | 12° |
| 2026-05-04 15:30 | 28.56840 | 77.11550 | 749 ft | 20 kts | 93° |
| 2026-05-04 15:30 | 28.56837 | 77.11620 | 750 ft | 0 kts | 92° |
| 2026-05-04 15:32 | 28.56823 | 77.11626 | 747 ft | 1 kts | 193° |
| 2026-05-04 15:32 | 28.56820 | 77.11614 | 746 ft | 2 kts | 257° |
| 2026-05-04 15:33 | 28.56843 | 77.11550 | 748 ft | 7 kts | 281° |
| 2026-05-04 15:34 | 28.56858 | 77.11252 | 747 ft | 18 kts | 273° |
| 2026-05-04 15:34 | 28.56851 | 77.11104 | 747 ft | 11 kts | 266° |
| 2026-05-04 15:34 | 28.56774 | 77.11051 | 748 ft | 10 kts | 187° |
| 2026-05-04 15:35 | 28.56741 | 77.11010 | 749 ft | 4 kts | 289° |
| 2026-05-04 15:35 | 28.56752 | 77.10965 | 750 ft | 4 kts | 284° |
| 2026-05-04 15:35 | 28.56753 | 77.10958 | 747 ft | 0 kts | 284° |